<?xml version="1.0" encoding="UTF-8" standalone="no" ?>
<gpx xmlns="http://www.topografix.com/GPX/1/1" xmlns:xsi="http://www.w3.org/2001/XMLSchema-instance" xsi:schemaLocation="http://www.topografix.com/GPX/1/1 http://www.topografix.com/GPX/1/1/gpx.xsd" version="1.1" creator="VisuGPX - https://www.visugpx.com">
  <metadata>
    <name>Transcaucasie: Géorgie + Arménie</name>
  </metadata>
  <trk>
    <name><![CDATA[Tour d'Europe: étape 459]]></name>
    <extensions>
      <line xmlns="http://www.topografix.com/GPX/gpx_style/0/2">
        <color>0000FF</color>
        <width>4</width>
      </line>
    </extensions>
    <trkseg>
      <trkpt lat="41.57023" lon="43.25569">
        <ele>1153.957349</ele>
        <time>2021-09-30T04:46:57.588Z</time>
      </trkpt>
      <trkpt lat="41.56947" lon="43.25623">
        <ele>1153.957349</ele>
        <time>2021-09-30T04:59:25.582Z</time>
      </trkpt>
      <trkpt lat="41.56818" lon="43.2548">
        <ele>1149.358207</ele>
        <time>2021-09-30T05:00:38.574Z</time>
      </trkpt>
      <trkpt lat="41.56683" lon="43.25701">
        <ele>1144.968607</ele>
        <time>2021-09-30T05:01:43.578Z</time>
      </trkpt>
      <trkpt lat="41.56546" lon="43.25902">
        <ele>1133.845745</ele>
        <time>2021-09-30T05:02:27.586Z</time>
      </trkpt>
      <trkpt lat="41.56499" lon="43.26208">
        <ele>1120.729111</ele>
        <time>2021-09-30T05:03:03.590Z</time>
      </trkpt>
      <trkpt lat="41.56394" lon="43.26529">
        <ele>1104.406213</ele>
        <time>2021-09-30T05:03:43.648Z</time>
      </trkpt>
      <trkpt lat="41.56348" lon="43.2686">
        <ele>1090.002185</ele>
        <time>2021-09-30T05:04:12.604Z</time>
      </trkpt>
      <trkpt lat="41.56223" lon="43.27115">
        <ele>1093.531552</ele>
        <time>2021-09-30T05:04:55.612Z</time>
      </trkpt>
      <trkpt lat="41.56033" lon="43.27248">
        <ele>1101.368145</ele>
        <time>2021-09-30T05:05:56.594Z</time>
      </trkpt>
      <trkpt lat="41.55857" lon="43.27156">
        <ele>1105.687429</ele>
        <time>2021-09-30T05:06:56.588Z</time>
      </trkpt>
      <trkpt lat="41.5568" lon="43.26987">
        <ele>1108.614381</ele>
        <time>2021-09-30T05:07:54.613Z</time>
      </trkpt>
      <trkpt lat="41.55506" lon="43.26834">
        <ele>1112.093139</ele>
        <time>2021-09-30T05:09:10.617Z</time>
      </trkpt>
      <trkpt lat="41.55329" lon="43.26644">
        <ele>1119.453673</ele>
        <time>2021-09-30T05:10:07.616Z</time>
      </trkpt>
      <trkpt lat="41.55187" lon="43.26436">
        <ele>1119.981177</ele>
        <time>2021-09-30T05:11:04.599Z</time>
      </trkpt>
      <trkpt lat="41.55088" lon="43.26168">
        <ele>1118.766407</ele>
        <time>2021-09-30T05:11:45.604Z</time>
      </trkpt>
      <trkpt lat="41.54908" lon="43.25998">
        <ele>1110.720266</ele>
        <time>2021-09-30T05:12:30.612Z</time>
      </trkpt>
      <trkpt lat="41.54673" lon="43.26004">
        <ele>1104.38401</ele>
        <time>2021-09-30T05:13:23.604Z</time>
      </trkpt>
      <trkpt lat="41.54467" lon="43.26095">
        <ele>1108.676894</ele>
        <time>2021-09-30T05:14:07.632Z</time>
      </trkpt>
      <trkpt lat="41.54249" lon="43.26182">
        <ele>1110.823491</ele>
        <time>2021-09-30T05:15:02.599Z</time>
      </trkpt>
      <trkpt lat="41.54045" lon="43.26034">
        <ele>1110.326593</ele>
        <time>2021-09-30T05:15:49.594Z</time>
      </trkpt>
      <trkpt lat="41.53914" lon="43.25832">
        <ele>1121.612693</ele>
        <time>2021-09-30T05:17:11.595Z</time>
      </trkpt>
      <trkpt lat="41.53724" lon="43.25881">
        <ele>1127.560843</ele>
        <time>2021-09-30T05:18:46.599Z</time>
      </trkpt>
      <trkpt lat="41.53521" lon="43.25956">
        <ele>1123.106185</ele>
        <time>2021-09-30T05:19:35.645Z</time>
      </trkpt>
      <trkpt lat="41.53267" lon="43.26112">
        <ele>1116.033957</ele>
        <time>2021-09-30T05:20:17.631Z</time>
      </trkpt>
      <trkpt lat="41.53022" lon="43.26072">
        <ele>1112.545576</ele>
        <time>2021-09-30T05:21:02.589Z</time>
      </trkpt>
      <trkpt lat="41.52806" lon="43.26057">
        <ele>1118.514133</ele>
        <time>2021-09-30T05:22:09.606Z</time>
      </trkpt>
      <trkpt lat="41.5261" lon="43.25978">
        <ele>1125.279166</ele>
        <time>2021-09-30T05:23:23.599Z</time>
      </trkpt>
      <trkpt lat="41.5241" lon="43.25915">
        <ele>1130.011229</ele>
        <time>2021-09-30T05:24:47.599Z</time>
      </trkpt>
      <trkpt lat="41.52157" lon="43.25972">
        <ele>1123.56692</ele>
        <time>2021-09-30T05:25:27.612Z</time>
      </trkpt>
      <trkpt lat="41.51928" lon="43.25956">
        <ele>1126.143325</ele>
        <time>2021-09-30T05:26:20.604Z</time>
      </trkpt>
      <trkpt lat="41.51724" lon="43.25906">
        <ele>1136.363966</ele>
        <time>2021-09-30T05:28:02.646Z</time>
      </trkpt>
      <trkpt lat="41.51589" lon="43.26098">
        <ele>1136.581695</ele>
        <time>2021-09-30T05:29:18.603Z</time>
      </trkpt>
      <trkpt lat="41.51316" lon="43.26164">
        <ele>1127.04251</ele>
        <time>2021-09-30T05:29:53.594Z</time>
      </trkpt>
      <trkpt lat="41.51088" lon="43.26126">
        <ele>1125.788989</ele>
        <time>2021-09-30T05:30:38.615Z</time>
      </trkpt>
      <trkpt lat="41.50872" lon="43.26149">
        <ele>1131.513603</ele>
        <time>2021-09-30T05:31:38.604Z</time>
      </trkpt>
      <trkpt lat="41.50651" lon="43.26108">
        <ele>1130.052259</ele>
        <time>2021-09-30T05:32:24.609Z</time>
      </trkpt>
      <trkpt lat="41.50433" lon="43.26208">
        <ele>1135.469976</ele>
        <time>2021-09-30T05:33:26.597Z</time>
      </trkpt>
      <trkpt lat="41.50249" lon="43.26339">
        <ele>1137.638016</ele>
        <time>2021-09-30T05:34:23.601Z</time>
      </trkpt>
      <trkpt lat="41.50045" lon="43.26299">
        <ele>1135.523529</ele>
        <time>2021-09-30T05:35:12.610Z</time>
      </trkpt>
      <trkpt lat="41.49823" lon="43.2633">
        <ele>1139.257268</ele>
        <time>2021-09-30T05:36:06.602Z</time>
      </trkpt>
      <trkpt lat="41.4966" lon="43.26468">
        <ele>1144.955715</ele>
        <time>2021-09-30T05:37:45.595Z</time>
      </trkpt>
      <trkpt lat="41.49478" lon="43.26605">
        <ele>1145.99627</ele>
        <time>2021-09-30T05:38:48.616Z</time>
      </trkpt>
      <trkpt lat="41.49257" lon="43.26672">
        <ele>1148.21455</ele>
        <time>2021-09-30T05:39:52.640Z</time>
      </trkpt>
      <trkpt lat="41.49028" lon="43.26699">
        <ele>1145.682087</ele>
        <time>2021-09-30T05:40:48.645Z</time>
      </trkpt>
      <trkpt lat="41.48792" lon="43.26813">
        <ele>1142.827159</ele>
        <time>2021-09-30T05:41:31.602Z</time>
      </trkpt>
      <trkpt lat="41.48572" lon="43.26828">
        <ele>1144.558914</ele>
        <time>2021-09-30T05:42:31.606Z</time>
      </trkpt>
      <trkpt lat="41.48427" lon="43.27016">
        <ele>1154.301945</ele>
        <time>2021-09-30T05:43:45.645Z</time>
      </trkpt>
      <trkpt lat="41.48409" lon="43.27298">
        <ele>1151.487066</ele>
        <time>2021-09-30T05:45:10.661Z</time>
      </trkpt>
      <trkpt lat="41.48365" lon="43.27569">
        <ele>1151.093446</ele>
        <time>2021-09-30T05:45:55.660Z</time>
      </trkpt>
      <trkpt lat="41.48252" lon="43.27826">
        <ele>1159.528212</ele>
        <time>2021-09-30T05:46:59.612Z</time>
      </trkpt>
      <trkpt lat="41.48143" lon="43.28052">
        <ele>1168.27085</ele>
        <time>2021-09-30T05:48:45.604Z</time>
      </trkpt>
      <trkpt lat="41.48073" lon="43.28291">
        <ele>1176.116372</ele>
        <time>2021-09-30T05:50:39.604Z</time>
      </trkpt>
      <trkpt lat="41.48139" lon="43.28585">
        <ele>1173.465446</ele>
        <time>2021-09-30T05:51:55.629Z</time>
      </trkpt>
      <trkpt lat="41.48201" lon="43.28879">
        <ele>1172.952199</ele>
        <time>2021-09-30T05:52:48.619Z</time>
      </trkpt>
      <trkpt lat="41.48239" lon="43.29178">
        <ele>1177.656359</ele>
        <time>2021-09-30T05:53:52.606Z</time>
      </trkpt>
      <trkpt lat="41.48253" lon="43.2946">
        <ele>1178.069554</ele>
        <time>2021-09-30T05:54:57.620Z</time>
      </trkpt>
      <trkpt lat="41.48293" lon="43.29737">
        <ele>1183.038551</ele>
        <time>2021-09-30T05:56:01.647Z</time>
      </trkpt>
      <trkpt lat="41.48317" lon="43.30003">
        <ele>1188.347729</ele>
        <time>2021-09-30T05:57:26.606Z</time>
      </trkpt>
      <trkpt lat="41.48353" lon="43.30256">
        <ele>1201.070913</ele>
        <time>2021-09-30T05:59:12.614Z</time>
      </trkpt>
      <trkpt lat="41.48384" lon="43.3052">
        <ele>1209.189052</ele>
        <time>2021-09-30T06:00:51.615Z</time>
      </trkpt>
      <trkpt lat="41.48457" lon="43.30759">
        <ele>1217.963412</ele>
        <time>2021-09-30T06:02:32.608Z</time>
      </trkpt>
      <trkpt lat="41.48554" lon="43.30993">
        <ele>1229.668164</ele>
        <time>2021-09-30T06:04:22.604Z</time>
      </trkpt>
      <trkpt lat="41.48625" lon="43.31263">
        <ele>1237.201041</ele>
        <time>2021-09-30T06:09:42.619Z</time>
      </trkpt>
      <trkpt lat="41.48673" lon="43.31521">
        <ele>1240.982705</ele>
        <time>2021-09-30T06:11:00.616Z</time>
      </trkpt>
      <trkpt lat="41.48804" lon="43.3177">
        <ele>1237.252969</ele>
        <time>2021-09-30T06:11:50.624Z</time>
      </trkpt>
      <trkpt lat="41.48778" lon="43.32034">
        <ele>1236.455145</ele>
        <time>2021-09-30T06:12:33.622Z</time>
      </trkpt>
      <trkpt lat="41.48854" lon="43.32345">
        <ele>1230.015041</ele>
        <time>2021-09-30T06:13:13.612Z</time>
      </trkpt>
      <trkpt lat="41.48839" lon="43.3267">
        <ele>1224.836061</ele>
        <time>2021-09-30T06:13:44.626Z</time>
      </trkpt>
      <trkpt lat="41.48976" lon="43.32857">
        <ele>1233.889797</ele>
        <time>2021-09-30T06:14:42.619Z</time>
      </trkpt>
      <trkpt lat="41.48997" lon="43.33139">
        <ele>1239.533679</ele>
        <time>2021-09-30T06:15:47.606Z</time>
      </trkpt>
      <trkpt lat="41.49057" lon="43.33402">
        <ele>1243.745128</ele>
        <time>2021-09-30T06:16:54.617Z</time>
      </trkpt>
      <trkpt lat="41.49116" lon="43.33655">
        <ele>1248.270419</ele>
        <time>2021-09-30T06:18:13.613Z</time>
      </trkpt>
      <trkpt lat="41.49078" lon="43.33917">
        <ele>1248.476647</ele>
        <time>2021-09-30T06:19:24.630Z</time>
      </trkpt>
      <trkpt lat="41.49022" lon="43.34169">
        <ele>1254.20054</ele>
        <time>2021-09-30T06:20:32.618Z</time>
      </trkpt>
      <trkpt lat="41.48941" lon="43.34451">
        <ele>1264.462503</ele>
        <time>2021-09-30T06:21:28.627Z</time>
      </trkpt>
      <trkpt lat="41.48859" lon="43.34678">
        <ele>1268.527916</ele>
        <time>2021-09-30T06:22:48.630Z</time>
      </trkpt>
      <trkpt lat="41.48816" lon="43.34941">
        <ele>1270.69017</ele>
        <time>2021-09-30T06:24:08.619Z</time>
      </trkpt>
      <trkpt lat="41.48772" lon="43.35215">
        <ele>1274.143649</ele>
        <time>2021-09-30T06:25:24.655Z</time>
      </trkpt>
      <trkpt lat="41.48761" lon="43.3547">
        <ele>1281.494495</ele>
        <time>2021-09-30T06:26:57.612Z</time>
      </trkpt>
      <trkpt lat="41.48614" lon="43.35655">
        <ele>1286.658065</ele>
        <time>2021-09-30T06:28:29.613Z</time>
      </trkpt>
      <trkpt lat="41.48505" lon="43.35878">
        <ele>1293.722612</ele>
        <time>2021-09-30T06:29:54.617Z</time>
      </trkpt>
      <trkpt lat="41.48421" lon="43.36105">
        <ele>1302.446748</ele>
        <time>2021-09-30T06:31:34.620Z</time>
      </trkpt>
      <trkpt lat="41.48479" lon="43.36371">
        <ele>1307.236171</ele>
        <time>2021-09-30T06:33:10.613Z</time>
      </trkpt>
      <trkpt lat="41.48415" lon="43.36644">
        <ele>1312.346175</ele>
        <time>2021-09-30T06:34:24.654Z</time>
      </trkpt>
      <trkpt lat="41.48471" lon="43.36903">
        <ele>1313.579352</ele>
        <time>2021-09-30T06:35:39.617Z</time>
      </trkpt>
      <trkpt lat="41.48477" lon="43.37185">
        <ele>1322.253198</ele>
        <time>2021-09-30T06:36:59.661Z</time>
      </trkpt>
      <trkpt lat="41.48441" lon="43.37449">
        <ele>1327.67052</ele>
        <time>2021-09-30T06:38:08.632Z</time>
      </trkpt>
      <trkpt lat="41.48361" lon="43.3769">
        <ele>1333.431245</ele>
        <time>2021-09-30T06:39:35.649Z</time>
      </trkpt>
      <trkpt lat="41.48328" lon="43.37948">
        <ele>1339.195584</ele>
        <time>2021-09-30T06:41:12.613Z</time>
      </trkpt>
      <trkpt lat="41.48204" lon="43.38169">
        <ele>1350.909158</ele>
        <time>2021-09-30T06:43:06.659Z</time>
      </trkpt>
      <trkpt lat="41.48118" lon="43.38395">
        <ele>1354.491341</ele>
        <time>2021-09-30T06:44:33.629Z</time>
      </trkpt>
      <trkpt lat="41.48048" lon="43.38656">
        <ele>1355.259331</ele>
        <time>2021-09-30T06:45:27.622Z</time>
      </trkpt>
      <trkpt lat="41.47983" lon="43.38915">
        <ele>1353.017008</ele>
        <time>2021-09-30T06:46:25.629Z</time>
      </trkpt>
      <trkpt lat="41.47863" lon="43.3914">
        <ele>1360.490872</ele>
        <time>2021-09-30T06:47:39.637Z</time>
      </trkpt>
      <trkpt lat="41.47756" lon="43.39378">
        <ele>1369.956259</ele>
        <time>2021-09-30T06:49:10.632Z</time>
      </trkpt>
      <trkpt lat="41.47577" lon="43.39512">
        <ele>1373.757093</ele>
        <time>2021-09-30T06:50:42.671Z</time>
      </trkpt>
      <trkpt lat="41.47411" lon="43.39636">
        <ele>1377.507427</ele>
        <time>2021-09-30T06:52:04.627Z</time>
      </trkpt>
      <trkpt lat="41.47255" lon="43.39803">
        <ele>1383.932727</ele>
        <time>2021-09-30T06:53:41.626Z</time>
      </trkpt>
      <trkpt lat="41.47113" lon="43.39991">
        <ele>1391.831511</ele>
        <time>2021-09-30T06:55:21.634Z</time>
      </trkpt>
      <trkpt lat="41.46991" lon="43.40195">
        <ele>1401.12106</ele>
        <time>2021-09-30T06:57:02.662Z</time>
      </trkpt>
      <trkpt lat="41.46929" lon="43.40453">
        <ele>1407.743318</ele>
        <time>2021-09-30T06:58:34.624Z</time>
      </trkpt>
      <trkpt lat="41.46868" lon="43.40702">
        <ele>1416.261</ele>
        <time>2021-09-30T07:00:03.610Z</time>
      </trkpt>
      <trkpt lat="41.46758" lon="43.40979">
        <ele>1416.576374</ele>
        <time>2021-09-30T07:02:08.613Z</time>
      </trkpt>
      <trkpt lat="41.46691" lon="43.41215">
        <ele>1431.082588</ele>
        <time>2021-09-30T07:03:52.618Z</time>
      </trkpt>
      <trkpt lat="41.46582" lon="43.41428">
        <ele>1447.130301</ele>
        <time>2021-09-30T07:05:54.610Z</time>
      </trkpt>
      <trkpt lat="41.46493" lon="43.41665">
        <ele>1459.669123</ele>
        <time>2021-09-30T07:07:53.633Z</time>
      </trkpt>
      <trkpt lat="41.46428" lon="43.41965">
        <ele>1452.655967</ele>
        <time>2021-09-30T07:08:42.640Z</time>
      </trkpt>
      <trkpt lat="41.46466" lon="43.4226">
        <ele>1445.437352</ele>
        <time>2021-09-30T07:09:45.618Z</time>
      </trkpt>
      <trkpt lat="41.46563" lon="43.42487">
        <ele>1460.499737</ele>
        <time>2021-09-30T07:11:30.616Z</time>
      </trkpt>
      <trkpt lat="41.46619" lon="43.42737">
        <ele>1468.649203</ele>
        <time>2021-09-30T07:13:13.635Z</time>
      </trkpt>
      <trkpt lat="41.4667" lon="43.43008">
        <ele>1474.247936</ele>
        <time>2021-09-30T07:14:34.629Z</time>
      </trkpt>
      <trkpt lat="41.4673" lon="43.43257">
        <ele>1481.019225</ele>
        <time>2021-09-30T07:16:21.617Z</time>
      </trkpt>
      <trkpt lat="41.46652" lon="43.43503">
        <ele>1493.441088</ele>
        <time>2021-09-30T07:17:34.629Z</time>
      </trkpt>
      <trkpt lat="41.4664" lon="43.43766">
        <ele>1493.972252</ele>
        <time>2021-09-30T07:19:04.661Z</time>
      </trkpt>
      <trkpt lat="41.46499" lon="43.43921">
        <ele>1493.635103</ele>
        <time>2021-09-30T07:20:42.638Z</time>
      </trkpt>
      <trkpt lat="41.46443" lon="43.44152">
        <ele>1500.799398</ele>
        <time>2021-09-30T07:22:55.627Z</time>
      </trkpt>
      <trkpt lat="41.46296" lon="43.44334">
        <ele>1510.153351</ele>
        <time>2021-09-30T07:24:27.622Z</time>
      </trkpt>
      <trkpt lat="41.46137" lon="43.44515">
        <ele>1517.273442</ele>
        <time>2021-09-30T07:25:41.636Z</time>
      </trkpt>
      <trkpt lat="41.45972" lon="43.44655">
        <ele>1522.173487</ele>
        <time>2021-09-30T07:27:14.630Z</time>
      </trkpt>
      <trkpt lat="41.45838" lon="43.44847">
        <ele>1528.004611</ele>
        <time>2021-09-30T07:28:58.635Z</time>
      </trkpt>
      <trkpt lat="41.45752" lon="43.45077">
        <ele>1544.816101</ele>
        <time>2021-09-30T07:30:53.633Z</time>
      </trkpt>
      <trkpt lat="41.45814" lon="43.45329">
        <ele>1557.999824</ele>
        <time>2021-09-30T07:32:37.628Z</time>
      </trkpt>
      <trkpt lat="41.45847" lon="43.45631">
        <ele>1556.724768</ele>
        <time>2021-09-30T07:33:43.630Z</time>
      </trkpt>
      <trkpt lat="41.45836" lon="43.45899">
        <ele>1558.623314</ele>
        <time>2021-09-30T07:35:13.638Z</time>
      </trkpt>
      <trkpt lat="41.45751" lon="43.46127">
        <ele>1568.212</ele>
        <time>2021-09-30T07:37:14.631Z</time>
      </trkpt>
      <trkpt lat="41.45805" lon="43.46392">
        <ele>1582.314189</ele>
        <time>2021-09-30T07:38:33.632Z</time>
      </trkpt>
      <trkpt lat="41.4578" lon="43.46637">
        <ele>1585.464601</ele>
        <time>2021-09-30T07:39:52.628Z</time>
      </trkpt>
      <trkpt lat="41.45671" lon="43.46866">
        <ele>1579.327451</ele>
        <time>2021-09-30T07:41:03.673Z</time>
      </trkpt>
      <trkpt lat="41.45461" lon="43.46886">
        <ele>1590.644593</ele>
        <time>2021-09-30T07:42:28.619Z</time>
      </trkpt>
      <trkpt lat="41.453" lon="43.47037">
        <ele>1595.086595</ele>
        <time>2021-09-30T07:44:06.615Z</time>
      </trkpt>
      <trkpt lat="41.45124" lon="43.46931">
        <ele>1609.307035</ele>
        <time>2021-09-30T07:45:33.627Z</time>
      </trkpt>
      <trkpt lat="41.4493" lon="43.46859">
        <ele>1621.568909</ele>
        <time>2021-09-30T07:46:55.652Z</time>
      </trkpt>
      <trkpt lat="41.44726" lon="43.46819">
        <ele>1624.098847</ele>
        <time>2021-09-30T07:48:20.625Z</time>
      </trkpt>
      <trkpt lat="41.44526" lon="43.46815">
        <ele>1636.850613</ele>
        <time>2021-09-30T07:49:43.620Z</time>
      </trkpt>
      <trkpt lat="41.4433" lon="43.46809">
        <ele>1624.528202</ele>
        <time>2021-09-30T07:50:52.638Z</time>
      </trkpt>
      <trkpt lat="41.44117" lon="43.46874">
        <ele>1631.434018</ele>
        <time>2021-09-30T07:52:21.628Z</time>
      </trkpt>
      <trkpt lat="41.43919" lon="43.46779">
        <ele>1633.52083</ele>
        <time>2021-09-30T07:53:36.633Z</time>
      </trkpt>
      <trkpt lat="41.43703" lon="43.46785">
        <ele>1627.829038</ele>
        <time>2021-09-30T07:54:36.620Z</time>
      </trkpt>
      <trkpt lat="41.43485" lon="43.46856">
        <ele>1632.807157</ele>
        <time>2021-09-30T07:55:38.638Z</time>
      </trkpt>
      <trkpt lat="41.43268" lon="43.46912">
        <ele>1633.94837</ele>
        <time>2021-09-30T07:56:42.623Z</time>
      </trkpt>
      <trkpt lat="41.43061" lon="43.4699">
        <ele>1636.181048</ele>
        <time>2021-09-30T07:57:48.619Z</time>
      </trkpt>
      <trkpt lat="41.4287" lon="43.47102">
        <ele>1638.490663</ele>
        <time>2021-09-30T07:59:14.623Z</time>
      </trkpt>
      <trkpt lat="41.42704" lon="43.47251">
        <ele>1637.571679</ele>
        <time>2021-09-30T08:00:33.666Z</time>
      </trkpt>
      <trkpt lat="41.42497" lon="43.47324">
        <ele>1638.759854</ele>
        <time>2021-09-30T08:01:49.627Z</time>
      </trkpt>
      <trkpt lat="41.4235" lon="43.4751">
        <ele>1638.8046</ele>
        <time>2021-09-30T08:03:33.650Z</time>
      </trkpt>
      <trkpt lat="41.42252" lon="43.47778">
        <ele>1645.237853</ele>
        <time>2021-09-30T08:15:42.641Z</time>
      </trkpt>
      <trkpt lat="41.42076" lon="43.47905">
        <ele>1651.638922</ele>
        <time>2021-09-30T08:17:05.633Z</time>
      </trkpt>
      <trkpt lat="41.41881" lon="43.48027">
        <ele>1653.524839</ele>
        <time>2021-09-30T08:18:13.646Z</time>
      </trkpt>
      <trkpt lat="41.41695" lon="43.48239">
        <ele>1653.003395</ele>
        <time>2021-09-30T08:19:10.646Z</time>
      </trkpt>
      <trkpt lat="41.41592" lon="43.48469">
        <ele>1656.613725</ele>
        <time>2021-09-30T08:20:04.631Z</time>
      </trkpt>
      <trkpt lat="41.41555" lon="43.48732">
        <ele>1666.36935</ele>
        <time>2021-09-30T08:21:32.644Z</time>
      </trkpt>
      <trkpt lat="41.41493" lon="43.4898">
        <ele>1671.703455</ele>
        <time>2021-09-30T08:22:57.633Z</time>
      </trkpt>
      <trkpt lat="41.41457" lon="43.48857">
        <ele>1671.52965</ele>
        <time>2021-09-30T08:27:02.654Z</time>
      </trkpt>
      <trkpt lat="41.41481" lon="43.48605">
        <ele>1681.31181</ele>
        <time>2021-09-30T08:28:47.644Z</time>
      </trkpt>
      <trkpt lat="41.41477" lon="43.48334">
        <ele>1688.078279</ele>
        <time>2021-09-30T08:30:35.637Z</time>
      </trkpt>
      <trkpt lat="41.41398" lon="43.48491">
        <ele>1699.85642</ele>
        <time>2021-09-30T08:32:18.626Z</time>
      </trkpt>
      <trkpt lat="41.41353" lon="43.48701">
        <ele>1710.203217</ele>
        <time>2021-09-30T08:34:08.660Z</time>
      </trkpt>
      <trkpt lat="41.41335" lon="43.48454">
        <ele>1724.931366</ele>
        <time>2021-09-30T08:35:50.640Z</time>
      </trkpt>
      <trkpt lat="41.41207" lon="43.48272">
        <ele>1733.406692</ele>
        <time>2021-09-30T08:37:52.634Z</time>
      </trkpt>
      <trkpt lat="41.41034" lon="43.48421">
        <ele>1736.745119</ele>
        <time>2021-09-30T08:39:03.640Z</time>
      </trkpt>
      <trkpt lat="41.40863" lon="43.48559">
        <ele>1746.130372</ele>
        <time>2021-09-30T08:40:06.633Z</time>
      </trkpt>
      <trkpt lat="41.40663" lon="43.48659">
        <ele>1740.270274</ele>
        <time>2021-09-30T08:41:21.644Z</time>
      </trkpt>
      <trkpt lat="41.40469" lon="43.48792">
        <ele>1739.809118</ele>
        <time>2021-09-30T08:42:24.648Z</time>
      </trkpt>
      <trkpt lat="41.40253" lon="43.48865">
        <ele>1736.430415</ele>
        <time>2021-09-30T08:43:24.644Z</time>
      </trkpt>
      <trkpt lat="41.40017" lon="43.48841">
        <ele>1742.383708</ele>
        <time>2021-09-30T08:44:46.645Z</time>
      </trkpt>
      <trkpt lat="41.39796" lon="43.48877">
        <ele>1743.908718</ele>
        <time>2021-09-30T08:45:37.637Z</time>
      </trkpt>
      <trkpt lat="41.39588" lon="43.48915">
        <ele>1742.511876</ele>
        <time>2021-09-30T08:46:34.635Z</time>
      </trkpt>
      <trkpt lat="41.39362" lon="43.48959">
        <ele>1742.288454</ele>
        <time>2021-09-30T08:47:42.637Z</time>
      </trkpt>
      <trkpt lat="41.39133" lon="43.49005">
        <ele>1744.14093</ele>
        <time>2021-09-30T08:48:42.634Z</time>
      </trkpt>
      <trkpt lat="41.38901" lon="43.49051">
        <ele>1746.547454</ele>
        <time>2021-09-30T08:49:42.703Z</time>
      </trkpt>
      <trkpt lat="41.38671" lon="43.49095">
        <ele>1742.372291</ele>
        <time>2021-09-30T08:50:38.622Z</time>
      </trkpt>
      <trkpt lat="41.38462" lon="43.49135">
        <ele>1741.826123</ele>
        <time>2021-09-30T08:51:23.629Z</time>
      </trkpt>
      <trkpt lat="41.38227" lon="43.49177">
        <ele>1743.15724</ele>
        <time>2021-09-30T08:52:19.651Z</time>
      </trkpt>
      <trkpt lat="41.37983" lon="43.49225">
        <ele>1744.449527</ele>
        <time>2021-09-30T08:53:19.686Z</time>
      </trkpt>
      <trkpt lat="41.37743" lon="43.49272">
        <ele>1746.267849</ele>
        <time>2021-09-30T08:54:17.654Z</time>
      </trkpt>
      <trkpt lat="41.37499" lon="43.4935">
        <ele>1741.831897</ele>
        <time>2021-09-30T08:54:57.639Z</time>
      </trkpt>
      <trkpt lat="41.37259" lon="43.49502">
        <ele>1736.478158</ele>
        <time>2021-09-30T08:55:34.636Z</time>
      </trkpt>
      <trkpt lat="41.37019" lon="43.49622">
        <ele>1735.107312</ele>
        <time>2021-09-30T08:56:11.641Z</time>
      </trkpt>
      <trkpt lat="41.36817" lon="43.49627">
        <ele>1740.954344</ele>
        <time>2021-09-30T08:57:17.639Z</time>
      </trkpt>
      <trkpt lat="41.3662" lon="43.49662">
        <ele>1748.698219</ele>
        <time>2021-09-30T08:58:50.644Z</time>
      </trkpt>
      <trkpt lat="41.36423" lon="43.49701">
        <ele>1755.049137</ele>
        <time>2021-09-30T09:00:31.642Z</time>
      </trkpt>
      <trkpt lat="41.36211" lon="43.49619">
        <ele>1757.820982</ele>
        <time>2021-09-30T09:01:54.685Z</time>
      </trkpt>
      <trkpt lat="41.36008" lon="43.49548">
        <ele>1762.659298</ele>
        <time>2021-09-30T09:03:10.649Z</time>
      </trkpt>
      <trkpt lat="41.35795" lon="43.49522">
        <ele>1766.612549</ele>
        <time>2021-09-30T09:04:28.628Z</time>
      </trkpt>
      <trkpt lat="41.35586" lon="43.49496">
        <ele>1768.997583</ele>
        <time>2021-09-30T09:05:43.643Z</time>
      </trkpt>
      <trkpt lat="41.35386" lon="43.49473">
        <ele>1772.189821</ele>
        <time>2021-09-30T09:06:43.645Z</time>
      </trkpt>
      <trkpt lat="41.35176" lon="43.49446">
        <ele>1776.073728</ele>
        <time>2021-09-30T09:07:57.662Z</time>
      </trkpt>
      <trkpt lat="41.34951" lon="43.49417">
        <ele>1780.80297</ele>
        <time>2021-09-30T09:09:17.630Z</time>
      </trkpt>
      <trkpt lat="41.34736" lon="43.49392">
        <ele>1783.172948</ele>
        <time>2021-09-30T09:10:32.648Z</time>
      </trkpt>
      <trkpt lat="41.34534" lon="43.49368">
        <ele>1784.660416</ele>
        <time>2021-09-30T09:11:34.648Z</time>
      </trkpt>
      <trkpt lat="41.34336" lon="43.49344">
        <ele>1790.45376</ele>
        <time>2021-09-30T09:12:58.636Z</time>
      </trkpt>
      <trkpt lat="41.34124" lon="43.49318">
        <ele>1795.341262</ele>
        <time>2021-09-30T09:16:07.651Z</time>
      </trkpt>
      <trkpt lat="41.33924" lon="43.49328">
        <ele>1803.307757</ele>
        <time>2021-09-30T09:17:42.650Z</time>
      </trkpt>
      <trkpt lat="41.3374" lon="43.4945">
        <ele>1810.64796</ele>
        <time>2021-09-30T09:19:22.640Z</time>
      </trkpt>
      <trkpt lat="41.33553" lon="43.49588">
        <ele>1813.294053</ele>
        <time>2021-09-30T09:20:37.645Z</time>
      </trkpt>
      <trkpt lat="41.3343" lon="43.49803">
        <ele>1819.418222</ele>
        <time>2021-09-30T09:21:54.633Z</time>
      </trkpt>
      <trkpt lat="41.33303" lon="43.50031">
        <ele>1824.593616</ele>
        <time>2021-09-30T09:23:30.633Z</time>
      </trkpt>
      <trkpt lat="41.33177" lon="43.50262">
        <ele>1822.113636</ele>
        <time>2021-09-30T09:24:26.656Z</time>
      </trkpt>
      <trkpt lat="41.33053" lon="43.50484">
        <ele>1820.924876</ele>
        <time>2021-09-30T09:25:10.650Z</time>
      </trkpt>
      <trkpt lat="41.32932" lon="43.50703">
        <ele>1820.502576</ele>
        <time>2021-09-30T09:25:50.649Z</time>
      </trkpt>
      <trkpt lat="41.32787" lon="43.5091">
        <ele>1820.088756</ele>
        <time>2021-09-30T09:26:32.643Z</time>
      </trkpt>
      <trkpt lat="41.32608" lon="43.51084">
        <ele>1824.360216</ele>
        <time>2021-09-30T09:27:31.724Z</time>
      </trkpt>
      <trkpt lat="41.32455" lon="43.51283">
        <ele>1829.334324</ele>
        <time>2021-09-30T09:28:46.641Z</time>
      </trkpt>
      <trkpt lat="41.32305" lon="43.51497">
        <ele>1831.92373</ele>
        <time>2021-09-30T09:30:03.653Z</time>
      </trkpt>
      <trkpt lat="41.3216" lon="43.51709">
        <ele>1835.675875</ele>
        <time>2021-09-30T09:33:17.655Z</time>
      </trkpt>
      <trkpt lat="41.32016" lon="43.51916">
        <ele>1838.585401</ele>
        <time>2021-09-30T09:34:36.659Z</time>
      </trkpt>
      <trkpt lat="41.31882" lon="43.5211">
        <ele>1839.866577</ele>
        <time>2021-09-30T09:35:36.667Z</time>
      </trkpt>
      <trkpt lat="41.31734" lon="43.52328">
        <ele>1841.520395</ele>
        <time>2021-09-30T09:36:39.651Z</time>
      </trkpt>
      <trkpt lat="41.31593" lon="43.52534">
        <ele>1843.190887</ele>
        <time>2021-09-30T09:37:41.659Z</time>
      </trkpt>
      <trkpt lat="41.31448" lon="43.52746">
        <ele>1847.792391</ele>
        <time>2021-09-30T09:38:58.662Z</time>
      </trkpt>
      <trkpt lat="41.31311" lon="43.52947">
        <ele>1851.805982</ele>
        <time>2021-09-30T09:40:06.655Z</time>
      </trkpt>
      <trkpt lat="41.31168" lon="43.53157">
        <ele>1857.174149</ele>
        <time>2021-09-30T09:41:34.641Z</time>
      </trkpt>
      <trkpt lat="41.3103" lon="43.53356">
        <ele>1859.489158</ele>
        <time>2021-09-30T09:42:50.674Z</time>
      </trkpt>
      <trkpt lat="41.30875" lon="43.53586">
        <ele>1857.200522</ele>
        <time>2021-09-30T09:43:41.645Z</time>
      </trkpt>
      <trkpt lat="41.30738" lon="43.53844">
        <ele>1859.826826</ele>
        <time>2021-09-30T09:44:41.650Z</time>
      </trkpt>
      <trkpt lat="41.30617" lon="43.54071">
        <ele>1862.840087</ele>
        <time>2021-09-30T09:45:41.664Z</time>
      </trkpt>
      <trkpt lat="41.30492" lon="43.54309">
        <ele>1865.200507</ele>
        <time>2021-09-30T09:46:33.653Z</time>
      </trkpt>
      <trkpt lat="41.30366" lon="43.54537">
        <ele>1869.282378</ele>
        <time>2021-09-30T09:47:44.678Z</time>
      </trkpt>
      <trkpt lat="41.30241" lon="43.54748">
        <ele>1872.34493</ele>
        <time>2021-09-30T09:48:50.651Z</time>
      </trkpt>
      <trkpt lat="41.30102" lon="43.54984">
        <ele>1874.777403</ele>
        <time>2021-09-30T09:49:50.648Z</time>
      </trkpt>
      <trkpt lat="41.29963" lon="43.5522">
        <ele>1877.729229</ele>
        <time>2021-09-30T09:50:53.655Z</time>
      </trkpt>
      <trkpt lat="41.29829" lon="43.55441">
        <ele>1880.301338</ele>
        <time>2021-09-30T09:51:53.650Z</time>
      </trkpt>
      <trkpt lat="41.29636" lon="43.55555">
        <ele>1882.614308</ele>
        <time>2021-09-30T09:52:54.650Z</time>
      </trkpt>
      <trkpt lat="41.29478" lon="43.55689">
        <ele>1895.856396</ele>
        <time>2021-09-30T09:54:53.680Z</time>
      </trkpt>
      <trkpt lat="41.29377" lon="43.5592">
        <ele>1903.713232</ele>
        <time>2021-09-30T09:56:45.677Z</time>
      </trkpt>
      <trkpt lat="41.29266" lon="43.56163">
        <ele>1903.235774</ele>
        <time>2021-09-30T09:57:49.653Z</time>
      </trkpt>
      <trkpt lat="41.29147" lon="43.56408">
        <ele>1903.647673</ele>
        <time>2021-09-30T09:58:29.644Z</time>
      </trkpt>
      <trkpt lat="41.28978" lon="43.56601">
        <ele>1903.728786</ele>
        <time>2021-09-30T09:59:23.662Z</time>
      </trkpt>
      <trkpt lat="41.28811" lon="43.56795">
        <ele>1902.403111</ele>
        <time>2021-09-30T10:00:10.649Z</time>
      </trkpt>
      <trkpt lat="41.28652" lon="43.56984">
        <ele>1911.266785</ele>
        <time>2021-09-30T10:01:08.651Z</time>
      </trkpt>
      <trkpt lat="41.28491" lon="43.57169">
        <ele>1916.062745</ele>
        <time>2021-09-30T10:02:16.657Z</time>
      </trkpt>
      <trkpt lat="41.2834" lon="43.57348">
        <ele>1921.663103</ele>
        <time>2021-09-30T10:03:24.652Z</time>
      </trkpt>
      <trkpt lat="41.28188" lon="43.57526">
        <ele>1925.329426</ele>
        <time>2021-09-30T10:05:05.665Z</time>
      </trkpt>
      <trkpt lat="41.28038" lon="43.5771">
        <ele>1932.293563</ele>
        <time>2021-09-30T10:07:10.655Z</time>
      </trkpt>
      <trkpt lat="41.27882" lon="43.57878">
        <ele>1940.323656</ele>
        <time>2021-09-30T10:08:55.668Z</time>
      </trkpt>
      <trkpt lat="41.27729" lon="43.58062">
        <ele>1946.421687</ele>
        <time>2021-09-30T10:10:22.639Z</time>
      </trkpt>
      <trkpt lat="41.2758" lon="43.58244">
        <ele>1951.497618</ele>
        <time>2021-09-30T10:11:46.662Z</time>
      </trkpt>
      <trkpt lat="41.27395" lon="43.58377">
        <ele>1950.263804</ele>
        <time>2021-09-30T10:12:51.642Z</time>
      </trkpt>
      <trkpt lat="41.27209" lon="43.58491">
        <ele>1951.976825</ele>
        <time>2021-09-30T10:13:57.652Z</time>
      </trkpt>
      <trkpt lat="41.27018" lon="43.58607">
        <ele>1953.559712</ele>
        <time>2021-09-30T10:14:57.659Z</time>
      </trkpt>
      <trkpt lat="41.26798" lon="43.58755">
        <ele>1953.917213</ele>
        <time>2021-09-30T10:15:56.632Z</time>
      </trkpt>
      <trkpt lat="41.26686" lon="43.58987">
        <ele>1962.811488</ele>
        <time>2021-09-30T10:17:00.652Z</time>
      </trkpt>
      <trkpt lat="41.26559" lon="43.59164">
        <ele>1964.891539</ele>
        <time>2021-09-30T10:18:11.670Z</time>
      </trkpt>
      <trkpt lat="41.26499" lon="43.59114">
        <ele>1964.891539</ele>
        <time>2021-09-30T10:31:29.190Z</time>
      </trkpt>
    </trkseg>
  </trk>
</gpx>